createdAt,value
2023-03-23T16:23:52.107Z,16.12
2023-03-23T16:26:19.363Z,16.10
2023-03-23T16:28:46.155Z,16.00
2023-03-23T16:31:12.663Z,15.90
2023-03-23T16:33:39.659Z,15.80
2023-03-23T16:36:07.079Z,15.80
2023-03-23T16:38:33.968Z,15.70
2023-03-23T16:41:16.887Z,15.60
2023-03-23T16:43:43.554Z,15.52
2023-03-23T16:46:13.155Z,15.50
2023-03-23T16:48:39.692Z,15.50
2023-03-23T16:51:06.658Z,15.38
2023-03-23T16:53:33.318Z,15.24
2023-03-23T16:56:00.167Z,15.20
2023-03-23T16:58:26.588Z,15.20
2023-03-23T17:00:53.483Z,15.16
2023-03-23T17:03:21.735Z,15.00
2023-03-23T17:05:51.038Z,15.00
2023-03-23T17:08:19.253Z,14.90
2023-03-23T17:10:46.398Z,14.86
2023-03-23T17:13:13.341Z,14.80
2023-03-23T17:15:45.300Z,14.80
2023-03-23T17:18:14.631Z,14.80
2023-03-23T17:20:41.041Z,14.70
2023-03-23T17:23:07.598Z,14.70
2023-03-23T17:25:34.124Z,14.70
2023-03-23T17:28:05.305Z,14.70
2023-03-23T17:30:33.367Z,14.70
2023-03-23T17:33:00.156Z,14.50
2023-03-23T17:35:26.897Z,14.50
2023-03-23T17:37:53.322Z,14.50
2023-03-23T17:40:19.902Z,14.50
2023-03-23T17:42:46.367Z,14.50
2023-03-23T17:45:12.859Z,14.52
2023-03-23T17:47:39.483Z,14.50
2023-03-23T17:50:11.520Z,14.50
2023-03-23T17:52:39.716Z,14.40
2023-03-23T17:55:07.140Z,14.46
2023-03-23T17:57:34.932Z,14.40
2023-03-23T18:00:02.525Z,14.30
2023-03-23T18:02:29.048Z,14.30
2023-03-23T18:04:59.435Z,14.30
2023-03-23T18:07:26.376Z,14.32
2023-03-23T18:09:52.847Z,14.38
2023-03-23T18:12:19.370Z,14.40
2023-03-23T18:14:45.866Z,14.36
2023-03-23T18:17:12.279Z,14.30
2023-03-23T18:19:38.752Z,14.30
2023-03-23T18:22:05.763Z,14.30
2023-03-23T18:24:32.224Z,14.30
2023-03-23T18:27:00.235Z,14.30
2023-03-23T18:29:27.021Z,14.30
2023-03-23T18:31:53.452Z,14.30
2023-03-23T18:34:19.926Z,14.30
2023-03-23T18:36:46.335Z,14.20
2023-03-23T18:39:12.875Z,14.20
2023-03-23T18:41:39.367Z,14.20
2023-03-23T18:44:06.253Z,14.20
2023-03-23T18:46:33.396Z,14.20
2023-03-23T18:49:00.030Z,14.20
2023-03-23T18:51:26.604Z,14.10
2023-03-23T18:53:53.190Z,14.10
2023-03-23T18:56:19.730Z,14.00
2023-03-23T18:58:46.647Z,14.00
2023-03-23T19:01:17.232Z,14.00
2023-03-23T19:03:45.464Z,14.00
2023-03-23T19:06:20.652Z,14.00
2023-03-23T19:08:49.114Z,13.90
2023-03-23T19:11:17.176Z,13.84
2023-03-23T19:13:58.440Z,13.80
2023-03-23T19:16:31.084Z,13.80
2023-03-23T19:18:57.721Z,13.88
2023-03-23T19:21:25.660Z,13.90
2023-03-23T19:23:54.777Z,13.90
2023-03-23T19:26:40.853Z,13.94
2023-03-23T19:29:26.822Z,14.00
2023-03-23T19:31:55.928Z,14.00
2023-03-23T19:34:24.688Z,13.96
2023-03-23T19:36:56.382Z,13.94
2023-03-23T19:39:31.256Z,13.90
2023-03-23T19:41:58.416Z,13.90
2023-03-23T19:44:25.228Z,14.00
2023-03-23T19:46:52.354Z,14.00
2023-03-23T19:49:18.781Z,14.00
2023-03-23T19:51:45.309Z,14.10
2023-03-23T19:54:13.207Z,14.00
2023-03-23T19:56:40.104Z,14.02
2023-03-23T19:59:09.595Z,14.10
2023-03-23T20:01:36.374Z,14.10
2023-03-23T20:04:05.094Z,14.10
2023-03-23T20:06:31.979Z,14.20
2023-03-23T20:09:00.051Z,14.20
2023-03-23T20:11:28.216Z,14.30
2023-03-23T20:13:55.416Z,14.40
2023-03-23T20:16:22.264Z,14.40
2023-03-23T20:18:50.007Z,14.40
2023-03-23T20:21:22.573Z,14.40
2023-03-23T20:23:54.145Z,14.40
2023-03-23T20:26:29.743Z,14.36
2023-03-23T20:28:56.693Z,14.40
2023-03-23T20:31:31.730Z,14.36
2023-03-23T20:34:17.104Z,14.40
2023-03-23T20:36:46.915Z,14.40
2023-03-23T20:39:21.081Z,14.50
2023-03-23T20:41:50.850Z,14.50
2023-03-23T20:44:19.753Z,14.50
2023-03-23T20:46:49.782Z,14.40
2023-03-23T20:49:18.435Z,14.40
2023-03-23T20:51:44.985Z,14.40
2023-03-23T20:54:15.756Z,14.40
2023-03-23T20:56:44.442Z,14.30
2023-03-23T20:59:12.137Z,14.28
2023-03-23T21:01:39.966Z,14.30
2023-03-23T21:04:15.012Z,14.30
2023-03-23T21:06:43.995Z,14.20
2023-03-23T21:09:11.285Z,14.20
2023-03-23T21:11:38.289Z,14.20
2023-03-23T21:14:05.840Z,14.10
2023-03-23T21:16:32.427Z,14.18
2023-03-23T21:18:58.946Z,14.20
2023-03-23T21:21:27.331Z,14.20
2023-03-23T21:23:55.599Z,14.30
2023-03-23T21:26:27.919Z,14.30
2023-03-23T21:28:59.629Z,14.22
2023-03-23T21:31:30.582Z,14.18
2023-03-23T21:34:00.918Z,14.20
2023-03-23T21:36:28.488Z,14.16
2023-03-23T21:38:56.405Z,14.10
2023-03-23T21:41:23.993Z,14.10
2023-03-23T21:43:50.502Z,14.10
2023-03-23T21:46:18.314Z,14.00
2023-03-23T21:48:52.554Z,13.98
2023-03-23T21:51:26.872Z,13.90
2023-03-23T21:53:54.680Z,13.80
2023-03-23T21:56:24.968Z,13.70
2023-03-23T21:58:52.125Z,13.60
2023-03-23T22:01:20.558Z,13.50
2023-03-23T22:03:47.350Z,13.50
2023-03-23T22:06:20.941Z,13.40
2023-03-23T22:08:48.009Z,13.32
2023-03-23T22:11:25.351Z,13.22
2023-03-23T22:13:54.435Z,13.10
2023-03-23T22:16:22.341Z,13.10
2023-03-23T22:18:52.209Z,12.96
2023-03-23T22:21:22.108Z,12.90
2023-03-23T22:23:49.685Z,12.80
2023-03-23T22:26:16.628Z,12.70
2023-03-23T22:28:46.262Z,12.60
2023-03-23T22:31:22.016Z,12.50
2023-03-23T22:33:54.099Z,12.40
2023-03-23T22:36:22.946Z,12.40
2023-03-23T22:38:50.360Z,12.30
2023-03-23T22:41:28.283Z,12.20
2023-03-23T22:43:55.470Z,12.20
2023-03-23T22:46:22.064Z,12.20
2023-03-23T22:48:48.938Z,12.10
2023-03-23T22:51:18.833Z,12.10
2023-03-23T22:53:46.350Z,12.00
2023-03-23T22:56:13.933Z,12.00
2023-03-23T22:58:41.030Z,12.00
2023-03-23T23:01:14.427Z,11.90
2023-03-23T23:03:41.126Z,11.80
2023-03-23T23:06:11.245Z,11.80
2023-03-23T23:08:38.228Z,11.80
2023-03-23T23:11:05.730Z,11.70
2023-03-23T23:13:33.299Z,11.60
2023-03-23T23:16:02.250Z,11.60
2023-03-23T23:18:31.023Z,11.60
2023-03-23T23:21:04.354Z,11.60
2023-03-23T23:23:31.717Z,11.50
2023-03-23T23:25:58.342Z,11.50
2023-03-23T23:28:24.836Z,11.50
2023-03-23T23:30:51.540Z,11.50
2023-03-23T23:33:18.981Z,11.42
2023-03-23T23:35:46.431Z,11.40
2023-03-23T23:38:13.914Z,11.40
2023-03-23T23:40:42.810Z,11.40
2023-03-23T23:43:14.888Z,11.40
2023-03-23T23:45:42.102Z,11.40
2023-03-23T23:48:09.345Z,11.30
2023-03-23T23:50:36.544Z,11.30
2023-03-23T23:53:04.808Z,11.20
2023-03-23T23:55:31.556Z,11.20
2023-03-23T23:57:58.013Z,11.10
